createdAt,value
2022-08-17T00:11:22.501Z,15.90
2022-08-17T00:41:25.699Z,16.43
2022-08-17T01:11:29.582Z,16.23
2022-08-17T01:41:32.610Z,13.23
2022-08-17T02:11:35.820Z,15.47
2022-08-17T02:41:39.379Z,13.20
2022-08-17T03:11:42.638Z,14.85
2022-08-17T03:41:45.672Z,15.43
2022-08-17T04:11:49.201Z,12.70
2022-08-17T04:41:51.884Z,12.80
2022-08-17T05:11:56.272Z,13.33
2022-08-17T05:41:59.192Z,14.88
2022-08-17T06:12:03.513Z,22.00
2022-08-17T06:42:06.454Z,19.65
2022-08-17T07:12:10.375Z,17.03
2022-08-17T07:42:13.460Z,16.35
2022-08-17T08:12:16.792Z,17.10
2022-08-17T08:42:20.332Z,11.30
2022-08-17T09:12:24.477Z,10.03
2022-08-17T09:42:27.600Z,10.93
2022-08-17T10:12:30.565Z,9.83
2022-08-17T10:42:33.941Z,9.50
2022-08-17T11:12:36.960Z,9.38
2022-08-17T11:42:39.943Z,11.48
2022-08-17T12:12:43.196Z,6.50
2022-08-17T12:42:46.275Z,6.97
2022-08-17T13:12:49.745Z,5.73
2022-08-17T13:42:53.969Z,6.80
2022-08-17T14:12:58.132Z,8.10
2022-08-17T15:13:05.574Z,7.67
2022-08-17T15:43:08.703Z,6.53
2022-08-17T16:13:17.495Z,6.75
2022-08-17T16:43:21.227Z,7.20
2022-08-17T17:13:25.547Z,6.33
2022-08-17T17:43:38.891Z,7.57
2022-08-17T18:13:42.949Z,11.53
2022-08-17T18:43:53.511Z,9.33
2022-08-17T19:13:57.377Z,10.23
2022-08-17T19:44:00.816Z,13.53
2022-08-17T20:14:04.234Z,12.17
2022-08-17T20:44:07.772Z,14.55
2022-08-17T21:14:10.602Z,11.85
2022-08-17T21:44:14.644Z,11.93
2022-08-17T22:14:17.642Z,14.77
2022-08-17T22:44:20.740Z,14.83
2022-08-17T23:14:24.255Z,15.87
2022-08-17T23:44:27.291Z,13.70
